Terminal Aerodrome Forecast
Issued by NWS Northern Indiana

Home | Current Version | Previous Version | Text Only | Print | Product List | Glossary On
Versions: 1 2 3 4 5 6 7 8 9 10 11 12 13 14
521
FTUS43 KIWX 061731
TAFFWA
TAF
KFWA 061731Z 0618/0718 VRB04KT 6SM BR SCT015 BKN035
      TEMPO 0618/0620 5SM -DZ BR BKN015
     FM062000 30004KT 6SM BR SCT015 OVC025
     FM070000 28011KT P6SM BKN012
     FM070500 26011KT P6SM SCT035 BKN120=

USA.gov is the U.S. government's official web portal to all federal, state and local government web resources and services.